createdAt,value
2023-04-09T00:00:06.275Z,45.10
2023-04-09T00:02:34.970Z,48.80
2023-04-09T00:05:05.074Z,49.70
2023-04-09T00:07:33.721Z,50.10
2023-04-09T00:10:02.216Z,48.77
2023-04-09T00:12:31.167Z,50.10
2023-04-09T00:14:59.525Z,50.37
2023-04-09T00:17:27.978Z,51.70
2023-04-09T00:19:56.380Z,50.10
2023-04-09T00:22:26.082Z,52.07
2023-04-09T00:24:54.951Z,52.97
2023-04-09T00:27:23.680Z,51.80
2023-04-09T00:29:54.429Z,51.30
2023-04-09T00:32:22.817Z,53.47
2023-04-09T00:34:51.479Z,54.60
2023-04-09T00:37:20.291Z,54.60
2023-04-09T00:39:49.858Z,54.23
2023-04-09T00:42:18.282Z,54.87
2023-04-09T00:44:46.667Z,54.20
2023-04-09T00:47:15.532Z,54.83
2023-04-09T00:49:44.605Z,56.87
2023-04-09T00:52:13.274Z,56.23
2023-04-09T00:54:41.753Z,58.33
2023-04-09T00:57:12.438Z,56.93
2023-04-09T00:59:41.112Z,59.87
2023-04-09T01:02:09.647Z,58.77
2023-04-09T01:04:39.629Z,58.13
2023-04-09T01:07:14.520Z,56.97
2023-04-09T01:09:49.360Z,56.43
2023-04-09T01:12:31.458Z,54.93
2023-04-09T01:15:06.630Z,55.60
2023-04-09T01:17:40.110Z,54.60
2023-04-09T01:20:14.571Z,56.57
2023-04-09T01:22:57.209Z,56.20
2023-04-09T01:25:44.878Z,54.33
2023-04-09T01:28:19.325Z,54.03
2023-04-09T01:31:00.887Z,55.47
2023-04-09T01:33:31.828Z,56.63
2023-04-09T01:36:01.217Z,54.13
2023-04-09T01:38:29.894Z,55.10
2023-04-09T01:40:59.116Z,53.03
2023-04-09T01:43:29.651Z,55.00
2023-04-09T01:45:58.835Z,56.17
2023-04-09T01:48:27.780Z,54.77
2023-04-09T01:50:56.351Z,54.03
2023-04-09T01:53:28.303Z,54.27
2023-04-09T01:55:56.909Z,55.57
2023-04-09T01:58:26.245Z,54.50
2023-04-09T02:00:59.639Z,56.73
2023-04-09T02:03:35.164Z,58.73
2023-04-09T02:06:10.306Z,58.40
2023-04-09T02:08:39.540Z,59.67
2023-04-09T02:11:11.026Z,59.87
2023-04-09T02:13:41.563Z,59.80
2023-04-09T02:16:14.320Z,57.27
2023-04-09T02:18:42.825Z,57.43
2023-04-09T02:21:13.764Z,55.10
2023-04-09T02:23:42.203Z,58.50
2023-04-09T02:26:10.946Z,59.27
2023-04-09T02:28:39.411Z,61.03
2023-04-09T02:31:07.908Z,59.17
2023-04-09T02:33:37.664Z,62.90
2023-04-09T02:36:06.945Z,67.03
2023-04-09T02:38:35.469Z,63.43
2023-04-09T02:41:03.944Z,64.03
2023-04-09T02:43:32.529Z,62.63
2023-04-09T02:46:00.978Z,64.97
2023-04-09T02:48:29.815Z,68.33
2023-04-09T02:50:59.838Z,64.87
2023-04-09T02:53:28.255Z,64.80
2023-04-09T02:55:56.931Z,67.13
2023-04-09T02:58:25.365Z,69.07
2023-04-09T03:00:53.654Z,67.77
2023-04-09T03:03:22.231Z,64.67
2023-04-09T03:05:50.970Z,65.00
2023-04-09T03:08:20.858Z,71.63
2023-04-09T03:10:49.210Z,68.47
2023-04-09T03:13:17.616Z,65.27
2023-04-09T03:15:46.052Z,64.77
2023-04-09T03:18:14.732Z,63.47
2023-04-09T03:20:43.276Z,68.83
2023-04-09T03:23:12.319Z,66.00
2023-04-09T03:25:41.896Z,69.30
2023-04-09T03:28:10.539Z,72.80
2023-04-09T03:30:38.994Z,72.23
2023-04-09T03:33:07.428Z,69.37
2023-04-09T03:35:35.824Z,67.87
2023-04-09T03:38:04.213Z,66.30
2023-04-09T03:40:33.490Z,66.50
2023-04-09T03:43:04.327Z,65.53
2023-04-09T03:45:32.760Z,65.13
2023-04-09T03:48:01.441Z,63.70
2023-04-09T03:50:29.866Z,64.83
2023-04-09T03:52:58.289Z,63.57
2023-04-09T03:55:27.121Z,62.83
2023-04-09T03:57:55.819Z,59.97
2023-04-09T04:00:25.704Z,59.10
2023-04-09T04:02:54.385Z,59.10
2023-04-09T04:05:26.276Z,60.00
2023-04-09T04:07:55.024Z,57.30
2023-04-09T04:10:23.482Z,62.10
2023-04-09T04:12:51.888Z,61.17
2023-04-09T04:15:20.970Z,58.23
2023-04-09T04:17:50.884Z,58.27
2023-04-09T04:20:19.314Z,52.00
2023-04-09T04:22:47.778Z,52.47
2023-04-09T04:25:16.286Z,52.23
2023-04-09T04:27:45.131Z,51.67
2023-04-09T04:30:13.552Z,54.37
2023-04-09T04:32:42.007Z,53.20
2023-04-09T04:35:11.886Z,52.30
2023-04-09T04:37:40.943Z,52.13
2023-04-09T04:40:10.196Z,51.77
2023-04-09T04:42:38.610Z,53.47
2023-04-09T04:45:07.873Z,52.00
2023-04-09T04:47:36.493Z,52.60
2023-04-09T04:50:05.202Z,54.20
2023-04-09T04:52:34.992Z,55.07
2023-04-09T04:55:03.511Z,55.77
2023-04-09T04:57:32.063Z,53.30
2023-04-09T05:00:00.623Z,55.23
2023-04-09T05:02:29.188Z,56.43
2023-04-09T05:04:57.780Z,55.43
2023-04-09T05:07:26.718Z,52.77
2023-04-09T05:09:56.512Z,50.87
2023-04-09T05:12:24.896Z,50.50
2023-04-09T05:14:53.342Z,47.23
2023-04-09T05:17:22.312Z,44.87
2023-04-09T05:19:53.046Z,41.80
2023-04-09T05:22:21.380Z,40.47
2023-04-09T05:24:50.002Z,40.00
2023-04-09T05:27:22.185Z,39.63
2023-04-09T05:29:50.646Z,38.30
2023-04-09T05:32:19.118Z,38.90
2023-04-09T05:34:47.831Z,36.33
2023-04-09T05:37:16.223Z,36.87
2023-04-09T05:39:44.730Z,38.00
2023-04-09T05:42:13.168Z,37.33
2023-04-09T05:44:42.830Z,37.27
2023-04-09T05:47:11.490Z,37.63
2023-04-09T05:49:39.893Z,42.67
2023-04-09T05:52:08.345Z,42.63
2023-04-09T05:54:36.860Z,41.87
2023-04-09T05:57:05.825Z,43.50
2023-04-09T05:59:34.692Z,42.80
2023-04-09T06:02:04.409Z,57.07
2023-04-09T06:04:33.044Z,62.90
2023-04-09T06:07:01.842Z,59.23
2023-04-09T06:09:30.316Z,55.70
2023-04-09T06:11:58.866Z,48.00
2023-04-09T06:14:27.315Z,46.80
2023-04-09T06:16:55.879Z,46.13
2023-04-09T06:19:26.200Z,44.63
2023-04-09T06:21:54.677Z,45.93
2023-04-09T06:24:23.217Z,47.87
2023-04-09T06:26:52.313Z,48.13
2023-04-09T06:29:21.583Z,48.10
2023-04-09T06:31:51.112Z,51.10
2023-04-09T06:34:19.604Z,51.23
2023-04-09T06:36:49.653Z,53.40
2023-04-09T06:39:18.035Z,52.07
2023-04-09T06:41:46.529Z,57.17
2023-04-09T06:44:15.007Z,56.07
2023-04-09T06:46:43.752Z,60.03
2023-04-09T06:49:12.454Z,59.40
2023-04-09T06:51:41.074Z,62.57
2023-04-09T06:54:10.853Z,67.93
2023-04-09T06:56:39.152Z,69.30
2023-04-09T06:59:07.584Z,68.40
2023-04-09T07:01:37.787Z,74.07
2023-04-09T07:04:06.914Z,69.87
2023-04-09T07:06:35.422Z,68.37
2023-04-09T07:09:03.808Z,68.03
2023-04-09T07:11:33.576Z,67.27
2023-04-09T07:14:02.007Z,64.87
2023-04-09T07:16:30.837Z,64.60
2023-04-09T07:18:59.242Z,67.40
2023-04-09T07:21:28.381Z,67.10
2023-04-09T07:23:57.603Z,70.17
2023-04-09T07:26:26.401Z,70.40
2023-04-09T07:28:56.173Z,69.97
2023-04-09T07:31:24.639Z,76.20
2023-04-09T07:33:53.293Z,76.17
2023-04-09T07:36:21.890Z,77.77
2023-04-09T07:38:50.461Z,71.10
2023-04-09T07:41:18.986Z,74.33
2023-04-09T07:43:47.353Z,71.07
2023-04-09T07:46:22.124Z,72.43
2023-04-09T07:48:51.274Z,75.47
2023-04-09T07:51:20.501Z,75.60
2023-04-09T07:53:48.959Z,72.93
2023-04-09T07:56:17.654Z,70.27
2023-04-09T07:58:46.068Z,63.03
2023-04-09T08:01:14.484Z,62.07
2023-04-09T08:03:44.334Z,63.70
2023-04-09T08:06:12.918Z,59.73
2023-04-09T08:08:41.823Z,59.03
2023-04-09T08:11:10.430Z,57.27
2023-04-09T08:13:39.119Z,59.23
2023-04-09T08:16:08.069Z,57.83
2023-04-09T08:18:36.497Z,64.28
2023-04-09T08:21:07.740Z,58.93
2023-04-09T08:23:36.248Z,49.27
2023-04-09T08:26:04.638Z,56.20
2023-04-09T08:28:33.348Z,52.10
2023-04-09T08:31:02.093Z,53.97
2023-04-09T08:33:30.974Z,54.50
2023-04-09T08:36:00.312Z,54.83
2023-04-09T08:38:31.949Z,54.50
2023-04-09T08:41:00.446Z,55.30
2023-04-09T08:43:41.972Z,56.13
2023-04-09T08:46:20.126Z,56.03
2023-04-09T08:48:50.733Z,55.77
2023-04-09T08:51:20.597Z,45.23
2023-04-09T08:53:56.923Z,48.20
2023-04-09T08:56:26.247Z,47.83
2023-04-09T08:58:56.167Z,43.37
2023-04-09T09:01:27.232Z,40.67
2023-04-09T09:04:00.933Z,38.47
2023-04-09T09:06:33.426Z,38.63
2023-04-09T09:09:05.173Z,38.10
2023-04-09T09:11:34.126Z,39.60
2023-04-09T09:14:03.666Z,39.13
2023-04-09T09:16:33.222Z,40.67
2023-04-09T09:19:02.117Z,35.95
2023-04-09T09:21:31.143Z,39.28
2023-04-09T09:23:59.691Z,39.65
2023-04-09T09:26:31.187Z,37.15
2023-04-09T09:29:01.616Z,38.15
2023-04-09T09:31:30.262Z,37.13
2023-04-09T09:34:01.141Z,35.53
2023-04-09T09:36:33.803Z,37.50
2023-04-09T09:39:09.800Z,39.38
2023-04-09T09:41:40.015Z,40.28
2023-04-09T09:44:08.716Z,37.97
2023-04-09T09:46:38.712Z,40.40
2023-04-09T09:49:07.391Z,36.08
2023-04-09T09:51:40.875Z,35.72
2023-04-09T09:54:10.806Z,34.30
2023-04-09T09:56:43.457Z,34.38
2023-04-09T09:59:17.779Z,36.55
2023-04-09T10:01:48.484Z,35.67
2023-04-09T10:04:19.740Z,35.53
2023-04-09T10:06:52.154Z,32.28
2023-04-09T10:09:23.283Z,34.22
2023-04-09T10:11:53.172Z,32.05
2023-04-09T10:14:22.442Z,26.70
2023-04-09T10:16:51.574Z,23.85
2023-04-09T10:19:20.662Z,26.25
2023-04-09T10:21:54.934Z,25.23
2023-04-09T10:24:24.130Z,23.15
2023-04-09T10:26:56.252Z,23.38
2023-04-09T10:29:29.925Z,25.92
2023-04-09T10:32:06.399Z,24.08
2023-04-09T10:34:39.292Z,21.38
2023-04-09T10:37:09.975Z,22.27
2023-04-09T10:39:42.915Z,25.48
2023-04-09T10:42:16.232Z,25.70
2023-04-09T10:44:44.656Z,24.50
2023-04-09T10:47:13.578Z,26.02
2023-04-09T10:49:42.907Z,26.40
2023-04-09T10:52:13.753Z,15.95
2023-04-09T10:54:49.380Z,27.45
2023-04-09T10:57:24.584Z,28.30
2023-04-09T10:59:54.149Z,28.15
2023-04-09T11:03:22.392Z,26.65
2023-04-09T11:05:53.829Z,28.63
2023-04-09T11:08:23.393Z,28.48
2023-04-09T11:10:54.456Z,26.92
2023-04-09T11:13:24.204Z,27.45
2023-04-09T11:15:52.778Z,29.65
2023-04-09T11:18:26.697Z,29.38
2023-04-09T11:20:59.306Z,24.25
2023-04-09T11:23:28.366Z,29.30
2023-04-09T11:25:57.028Z,30.70
2023-04-09T11:28:28.271Z,26.75
2023-04-09T11:30:56.787Z,28.60
2023-04-09T11:33:32.356Z,27.73
2023-04-09T11:36:01.757Z,27.48
2023-04-09T11:38:33.168Z,25.42
2023-04-09T11:41:03.544Z,25.52
2023-04-09T11:43:33.299Z,27.35
2023-04-09T11:46:01.861Z,24.70
2023-04-09T11:48:31.506Z,26.88
2023-04-09T11:50:59.969Z,25.40
2023-04-09T11:53:32.504Z,26.60
2023-04-09T11:56:01.662Z,26.55
2023-04-09T11:58:30.896Z,29.13
2023-04-09T12:01:01.199Z,27.33
2023-04-09T12:03:32.420Z,26.38
2023-04-09T12:06:02.919Z,25.35
2023-04-09T12:08:34.605Z,26.35
2023-04-09T12:11:10.647Z,25.30
2023-04-09T12:13:42.961Z,27.33
2023-04-09T12:16:13.115Z,27.30
2023-04-09T12:18:42.527Z,26.63
2023-04-09T12:21:11.500Z,26.75
2023-04-09T12:23:39.962Z,24.92
2023-04-09T12:26:08.392Z,23.38
2023-04-09T12:28:37.011Z,27.13
2023-04-09T12:31:06.032Z,24.85
2023-04-09T12:33:38.898Z,24.60
2023-04-09T12:36:07.650Z,24.95
2023-04-09T12:38:36.158Z,23.52
2023-04-09T12:41:04.597Z,26.15
2023-04-09T12:43:32.984Z,24.38
2023-04-09T12:46:01.566Z,24.98
2023-04-09T12:48:30.382Z,24.48
2023-04-09T12:50:59.986Z,22.52
2023-04-09T12:53:28.429Z,26.73
2023-04-09T12:55:57.108Z,35.50
2023-04-09T12:58:25.879Z,37.08
2023-04-09T13:00:54.637Z,30.02
2023-04-09T13:03:23.372Z,34.40
2023-04-09T13:05:52.082Z,38.20
2023-04-09T13:08:21.917Z,36.40
2023-04-09T13:10:50.348Z,31.35
2023-04-09T13:13:18.788Z,33.53
2023-04-09T13:15:47.158Z,32.05
2023-04-09T13:18:15.615Z,33.13
2023-04-09T13:20:44.134Z,34.00
2023-04-09T13:23:12.592Z,36.05
2023-04-09T13:25:42.235Z,30.63
2023-04-09T13:28:11.098Z,33.60
2023-04-09T13:30:39.608Z,25.17
2023-04-09T13:33:08.318Z,23.00
2023-04-09T13:35:37.115Z,20.60
2023-04-09T13:38:05.899Z,22.75
2023-04-09T13:40:34.337Z,21.85
2023-04-09T13:43:04.227Z,21.65
2023-04-09T13:45:32.672Z,20.42
2023-04-09T13:48:01.421Z,19.80
2023-04-09T13:50:30.492Z,20.40
2023-04-09T13:52:58.864Z,22.10
2023-04-09T13:55:27.189Z,22.48
2023-04-09T13:57:55.820Z,20.80
2023-04-09T14:00:25.749Z,21.88
2023-04-09T14:02:54.262Z,19.38
2023-04-09T14:05:22.850Z,21.08
2023-04-09T14:07:51.803Z,21.35
2023-04-09T14:10:20.282Z,21.63
2023-04-09T14:12:48.782Z,20.52
2023-04-09T14:15:17.231Z,19.23
2023-04-09T14:17:47.281Z,21.13
2023-04-09T14:20:15.672Z,19.92
2023-04-09T14:22:49.108Z,22.92
2023-04-09T14:25:17.615Z,23.45
2023-04-09T14:27:46.593Z,20.35
2023-04-09T14:30:15.471Z,20.65
2023-04-09T14:32:44.261Z,21.48
2023-04-09T14:35:14.077Z,21.77
2023-04-09T14:37:42.733Z,21.65
2023-04-09T14:40:11.405Z,23.05
2023-04-09T14:42:40.413Z,22.15
2023-04-09T14:45:09.386Z,24.45
2023-04-09T14:47:38.035Z,23.00
2023-04-09T14:50:06.889Z,21.13
2023-04-09T14:52:36.720Z,21.98
2023-04-09T14:55:05.573Z,19.75
2023-04-09T14:57:34.105Z,20.85
2023-04-09T15:00:02.736Z,20.20
2023-04-09T15:02:31.456Z,23.00
2023-04-09T15:05:00.084Z,21.33
2023-04-09T15:07:29.056Z,18.60
2023-04-09T15:10:00.017Z,18.70
2023-04-09T15:12:29.220Z,19.20
2023-04-09T15:14:57.758Z,20.35
2023-04-09T15:17:27.473Z,18.80
2023-04-09T15:19:55.941Z,19.52
2023-04-09T15:22:24.404Z,19.23
2023-04-09T15:24:52.932Z,20.50
2023-04-09T15:27:22.863Z,20.45
2023-04-09T15:29:51.358Z,18.63
2023-04-09T15:32:19.894Z,20.15
2023-04-09T15:34:48.378Z,20.50
2023-04-09T15:37:16.884Z,20.38
2023-04-09T15:39:45.893Z,23.17
2023-04-09T15:42:20.298Z,31.48
2023-04-09T15:44:50.581Z,35.97
2023-04-09T15:47:19.332Z,30.23
2023-04-09T15:49:47.708Z,21.08
2023-04-09T15:52:16.187Z,21.35
2023-04-09T15:54:44.706Z,23.23
2023-04-09T15:57:14.426Z,20.70
2023-04-09T15:59:42.896Z,28.40
2023-04-09T16:02:12.530Z,32.22
2023-04-09T16:04:40.901Z,32.22
2023-04-09T16:07:09.908Z,33.40
2023-04-09T16:09:38.362Z,33.53
2023-04-09T16:12:07.148Z,33.40
2023-04-09T16:14:35.451Z,33.80
2023-04-09T16:17:03.948Z,30.85
2023-04-09T16:19:33.757Z,33.03
2023-04-09T16:22:02.290Z,33.67
2023-04-09T16:24:31.745Z,31.77
2023-04-09T16:27:01.678Z,34.85
2023-04-09T16:29:30.132Z,32.60
2023-04-09T16:31:58.894Z,35.03
2023-04-09T16:34:27.468Z,35.38
2023-04-09T16:36:57.474Z,35.72
2023-04-09T16:39:25.995Z,35.35
2023-04-09T16:41:54.443Z,35.88
2023-04-09T16:44:22.862Z,36.25
2023-04-09T16:46:51.958Z,33.92
2023-04-09T16:49:20.468Z,34.22
2023-04-09T16:51:51.773Z,35.80
2023-04-09T16:54:21.781Z,34.83
2023-04-09T16:56:50.103Z,33.42
2023-04-09T16:59:21.029Z,36.42
2023-04-09T17:01:49.944Z,34.80
2023-04-09T17:04:18.446Z,36.47
2023-04-09T17:06:47.404Z,36.72
2023-04-09T17:09:16.342Z,37.47
2023-04-09T17:11:46.040Z,38.17
2023-04-09T17:14:14.474Z,37.58
2023-04-09T17:16:43.325Z,39.80
2023-04-09T17:19:13.894Z,39.35
2023-04-09T17:21:42.319Z,39.75
2023-04-09T17:24:10.768Z,37.88
2023-04-09T17:26:39.547Z,39.45
2023-04-09T17:29:09.482Z,39.50
2023-04-09T17:31:37.982Z,41.15
2023-04-09T17:34:06.340Z,41.45
2023-04-09T17:36:34.849Z,41.80
2023-04-09T17:39:03.314Z,41.63
2023-04-09T17:41:31.844Z,44.33
2023-04-09T17:44:00.353Z,43.80
2023-04-09T17:46:30.561Z,44.95
2023-04-09T17:48:59.011Z,43.75
2023-04-09T17:51:27.729Z,45.28
2023-04-09T17:53:56.334Z,45.33
2023-04-09T17:56:25.208Z,45.78
2023-04-09T17:58:54.200Z,44.78
2023-04-09T18:01:23.041Z,46.13
2023-04-09T18:03:52.954Z,46.67
2023-04-09T18:06:21.743Z,47.40
2023-04-09T18:08:51.036Z,48.35
2023-04-09T18:11:19.638Z,49.10
2023-04-09T18:13:48.075Z,49.17
2023-04-09T18:16:17.511Z,49.85
2023-04-09T18:18:46.227Z,50.17
2023-04-09T18:21:16.283Z,49.45
2023-04-09T18:23:44.861Z,51.42
2023-04-09T18:26:13.541Z,50.63
2023-04-09T18:28:42.077Z,52.17
2023-04-09T18:31:12.863Z,50.35
2023-04-09T18:33:41.109Z,53.22
2023-04-09T18:36:09.822Z,50.92
2023-04-09T18:38:39.645Z,51.25
2023-04-09T18:41:08.400Z,51.67
2023-04-09T18:43:36.871Z,48.63
2023-04-09T18:46:06.058Z,50.72
2023-04-09T18:48:34.771Z,50.65
2023-04-09T18:51:03.195Z,52.47
2023-04-09T18:53:31.832Z,52.20
2023-04-09T18:56:01.806Z,52.05
2023-04-09T18:58:30.345Z,52.40
2023-04-09T19:00:58.831Z,53.53
2023-04-09T19:03:29.463Z,56.47
2023-04-09T19:06:00.143Z,60.95
2023-04-09T19:08:32.546Z,56.03
2023-04-09T19:11:02.081Z,53.40
2023-04-09T19:13:30.530Z,54.43
2023-04-09T19:15:58.962Z,50.15
2023-04-09T19:18:27.716Z,48.50
2023-04-09T19:20:56.229Z,48.00
2023-04-09T19:23:24.882Z,46.40
2023-04-09T19:25:55.204Z,44.42
2023-04-09T19:28:24.994Z,44.63
2023-04-09T19:30:53.674Z,44.27
2023-04-09T19:33:22.476Z,44.00
2023-04-09T19:35:51.330Z,44.37
2023-04-09T19:38:20.508Z,42.33
2023-04-09T19:40:49.009Z,41.67
2023-04-09T19:43:17.611Z,41.30
2023-04-09T19:45:47.316Z,41.50
2023-04-09T19:48:16.155Z,40.17
2023-04-09T19:50:45.462Z,37.53
2023-04-09T19:53:13.897Z,36.77
2023-04-09T19:55:42.431Z,34.97
2023-04-09T19:58:11.118Z,34.50
2023-04-09T20:00:39.442Z,34.70
2023-04-09T20:03:09.447Z,33.10
2023-04-09T20:05:38.469Z,31.87
2023-04-09T20:08:12.206Z,32.27
2023-04-09T20:10:45.015Z,41.60
2023-04-09T20:13:13.580Z,36.80
2023-04-09T20:15:42.086Z,38.60
2023-04-09T20:18:12.196Z,36.10
2023-04-09T20:20:40.652Z,33.10
2023-04-09T20:23:09.169Z,31.73
2023-04-09T20:25:37.785Z,33.63
2023-04-09T20:28:06.643Z,33.83
2023-04-09T20:30:34.894Z,32.00
2023-04-09T20:33:03.385Z,32.07
2023-04-09T20:35:35.425Z,32.10
2023-04-09T20:38:04.093Z,31.70
2023-04-09T20:40:32.917Z,31.53
2023-04-09T20:43:01.431Z,32.27
2023-04-09T20:45:29.924Z,32.43
2023-04-09T20:47:58.662Z,32.57
2023-04-09T20:50:28.825Z,34.17
2023-04-09T20:52:58.997Z,33.17
2023-04-09T20:55:27.646Z,32.87
2023-04-09T20:57:56.456Z,33.57
2023-04-09T21:00:25.159Z,32.20
2023-04-09T21:02:54.190Z,32.93
2023-04-09T21:05:24.241Z,32.73
2023-04-09T21:07:53.383Z,33.33
2023-04-09T21:10:23.253Z,32.07
2023-04-09T21:12:51.775Z,32.90
2023-04-09T21:15:20.163Z,33.47
2023-04-09T21:17:48.931Z,33.33
2023-04-09T21:20:17.547Z,34.23
2023-04-09T21:22:45.840Z,32.57
2023-04-09T21:25:15.416Z,32.33
2023-04-09T21:27:45.918Z,31.47
2023-04-09T21:30:14.242Z,31.30
2023-04-09T21:32:42.836Z,31.23
2023-04-09T21:35:11.575Z,32.07
2023-04-09T21:37:40.053Z,31.63
2023-04-09T21:40:09.460Z,31.80
2023-04-09T21:42:37.933Z,31.13
2023-04-09T21:45:08.481Z,30.60
2023-04-09T21:47:37.925Z,30.77
2023-04-09T21:50:07.035Z,30.67
2023-04-09T21:52:35.565Z,30.67
2023-04-09T21:55:04.003Z,31.27
2023-04-09T21:57:32.625Z,30.23
2023-04-09T22:00:01.359Z,30.60
2023-04-09T22:02:31.402Z,30.33
2023-04-09T22:05:01.104Z,30.90
2023-04-09T22:07:29.751Z,29.90
2023-04-09T22:09:58.790Z,30.93
2023-04-09T22:12:27.285Z,30.00
2023-04-09T22:14:56.223Z,29.87
2023-04-09T22:17:24.934Z,30.73
2023-04-09T22:19:54.700Z,30.17
2023-04-09T22:22:23.237Z,29.43
2023-04-09T22:24:51.552Z,28.33
2023-04-09T22:27:20.206Z,28.70
2023-04-09T22:29:48.645Z,28.40
2023-04-09T22:32:17.047Z,28.27
2023-04-09T22:34:45.470Z,28.57
2023-04-09T22:37:17.133Z,28.90
2023-04-09T22:39:45.730Z,27.77
2023-04-09T22:42:14.204Z,26.00
2023-04-09T22:44:42.656Z,26.37
2023-04-09T22:47:11.411Z,26.53
2023-04-09T22:49:39.816Z,25.97
2023-04-09T22:52:08.402Z,25.20
2023-04-09T22:54:38.247Z,24.07
2023-04-09T22:57:06.723Z,23.27
2023-04-09T23:02:07.498Z,23.33
2023-04-09T23:04:36.140Z,21.90
2023-04-09T23:07:04.800Z,22.43
2023-04-09T23:09:33.245Z,21.83
2023-04-09T23:12:03.281Z,20.93
2023-04-09T23:14:31.607Z,21.27
2023-04-09T23:17:00.352Z,20.47
2023-04-09T23:19:28.801Z,20.37
2023-04-09T23:21:57.093Z,20.33
2023-04-09T23:24:25.492Z,20.93
2023-04-09T23:26:54.212Z,19.80
2023-04-09T23:29:23.862Z,20.47
2023-04-09T23:31:52.506Z,19.50
2023-04-09T23:34:20.951Z,19.93
2023-04-09T23:36:49.353Z,18.93
2023-04-09T23:39:17.800Z,20.77
2023-04-09T23:41:46.295Z,19.83
2023-04-09T23:44:14.874Z,19.80
2023-04-09T23:46:44.798Z,18.93
2023-04-09T23:49:13.373Z,17.93
2023-04-09T23:51:41.794Z,19.47
2023-04-09T23:54:10.604Z,19.53
2023-04-09T23:56:39.151Z,17.50
2023-04-09T23:59:07.689Z,18.30
